createdAt,value
2022-12-27T00:00:58.950Z,70.40
2022-12-27T00:03:27.009Z,64.10
2022-12-27T00:05:54.985Z,75.38
2022-12-27T00:08:22.946Z,71.43
2022-12-27T00:10:51.143Z,78.72
2022-12-27T00:13:19.082Z,70.95
2022-12-27T00:15:46.966Z,76.20
2022-12-27T00:18:15.055Z,69.40
2022-12-27T00:20:43.037Z,64.65
2022-12-27T00:23:10.991Z,79.47
2022-12-27T00:25:38.978Z,64.20
2022-12-27T00:28:06.889Z,68.07
2022-12-27T00:30:34.979Z,73.93
2022-12-27T00:33:02.895Z,94.35
2022-12-27T00:35:30.891Z,85.60
2022-12-27T00:37:59.222Z,84.97
2022-12-27T00:40:29.169Z,75.32
2022-12-27T00:42:57.168Z,61.20
2022-12-27T00:45:25.120Z,52.38
2022-12-27T00:47:53.093Z,54.33
2022-12-27T00:50:21.129Z,61.97
2022-12-27T00:52:49.113Z,81.90
2022-12-27T00:55:17.217Z,60.72
2022-12-27T00:57:45.182Z,64.13
2022-12-27T01:00:13.956Z,61.17
2022-12-27T01:02:42.106Z,69.70
2022-12-27T01:05:10.257Z,70.18
2022-12-27T01:07:38.269Z,69.82
2022-12-27T01:10:06.768Z,55.00
2022-12-27T01:12:36.125Z,54.03
2022-12-27T01:15:06.189Z,61.35
2022-12-27T01:17:34.698Z,71.65
2022-12-27T01:20:03.359Z,65.15
2022-12-27T01:22:31.308Z,63.00
2022-12-27T01:24:59.234Z,66.22
2022-12-27T01:27:27.305Z,65.80
2022-12-27T01:29:55.277Z,64.32
2022-12-27T01:32:23.531Z,59.42
2022-12-27T01:34:52.105Z,55.92
2022-12-27T01:37:20.028Z,60.97
2022-12-27T01:39:47.936Z,61.90
2022-12-27T01:42:38.433Z,51.05
2022-12-27T01:45:32.959Z,44.70
2022-12-27T01:48:12.437Z,63.15
2022-12-27T01:50:55.391Z,45.80
2022-12-27T01:53:30.134Z,44.05
2022-12-27T01:56:03.836Z,37.55
2022-12-27T01:58:37.414Z,30.42
2022-12-27T02:01:11.587Z,33.78
2022-12-27T02:03:45.765Z,33.90
2022-12-27T02:06:15.429Z,42.13
2022-12-27T02:08:49.164Z,44.55
2022-12-27T02:11:39.971Z,33.45
2022-12-27T02:14:08.184Z,59.28
2022-12-27T02:16:36.078Z,55.92
2022-12-27T02:19:08.591Z,43.00
2022-12-27T02:21:42.185Z,38.78
2022-12-27T02:24:37.610Z,49.72
2022-12-27T02:27:38.817Z,38.03
2022-12-27T02:30:08.903Z,39.97
2022-12-27T02:32:45.417Z,47.47
2022-12-27T02:35:27.191Z,42.60
2022-12-27T02:38:02.805Z,42.85
2022-12-27T02:40:51.220Z,42.47
2022-12-27T02:43:37.609Z,42.15
2022-12-27T02:46:46.823Z,49.65
2022-12-27T02:49:48.618Z,54.38
2022-12-27T02:53:07.273Z,49.42
2022-12-27T02:56:14.897Z,55.60
2022-12-27T03:00:37.618Z,29.58
2022-12-27T03:03:50.728Z,25.52
2022-12-27T03:06:42.876Z,24.77
2022-12-27T03:09:41.857Z,30.40
2022-12-27T03:12:36.074Z,31.60
2022-12-27T03:15:35.376Z,32.67
2022-12-27T03:18:11.134Z,40.90
2022-12-27T03:20:59.174Z,34.03
2022-12-27T03:23:47.926Z,36.50
2022-12-27T03:29:07.371Z,30.58
2022-12-27T03:32:02.502Z,31.73
2022-12-27T03:34:41.057Z,27.35
2022-12-27T03:37:34.488Z,29.00
2022-12-27T03:40:20.735Z,26.45
2022-12-27T03:43:13.238Z,23.02
2022-12-27T03:46:16.247Z,27.25
2022-12-27T03:48:57.894Z,24.13
2022-12-27T03:51:30.378Z,21.77
2022-12-27T03:54:07.117Z,21.90
2022-12-27T03:56:35.860Z,26.60
2022-12-27T03:59:05.414Z,24.98
2022-12-27T04:01:33.403Z,30.98
2022-12-27T04:04:01.398Z,25.20
2022-12-27T04:06:29.462Z,32.53
2022-12-27T04:09:15.776Z,33.08
2022-12-27T04:12:02.446Z,29.30
2022-12-27T04:14:48.971Z,31.02
2022-12-27T04:17:36.221Z,28.55
2022-12-27T04:20:22.909Z,28.33
2022-12-27T04:23:09.165Z,31.30
2022-12-27T04:25:55.488Z,30.63
2022-12-27T04:28:41.587Z,24.55
2022-12-27T04:31:28.660Z,27.02
2022-12-27T04:34:15.656Z,38.45
2022-12-27T04:36:43.746Z,31.45
2022-12-27T04:39:13.166Z,25.38
2022-12-27T04:41:59.598Z,24.92
2022-12-27T04:44:45.719Z,28.05
2022-12-27T04:47:34.507Z,24.55
2022-12-27T04:50:22.577Z,28.55
2022-12-27T04:53:11.285Z,18.08
2022-12-27T04:55:39.230Z,24.35
2022-12-27T04:58:07.115Z,23.08
2022-12-27T05:00:53.807Z,37.63
2022-12-27T05:03:24.457Z,33.05
2022-12-27T05:05:53.928Z,28.02
2022-12-27T05:08:41.634Z,38.53
2022-12-27T05:11:29.544Z,39.10
2022-12-27T05:14:00.114Z,32.85
2022-12-27T05:16:35.959Z,36.28
2022-12-27T05:19:08.909Z,31.13
2022-12-27T05:21:38.426Z,30.15
2022-12-27T05:26:56.488Z,29.02
2022-12-27T05:29:24.517Z,36.20
2022-12-27T05:31:52.740Z,38.15
2022-12-27T05:34:20.777Z,32.60
2022-12-27T05:36:48.704Z,39.05
2022-12-27T05:39:16.576Z,37.30
2022-12-27T05:41:44.690Z,27.33
2022-12-27T05:44:12.570Z,35.35
2022-12-27T05:46:40.795Z,32.28
2022-12-27T05:49:08.707Z,31.88
2022-12-27T05:51:37.271Z,37.88
2022-12-27T05:54:05.487Z,41.35
2022-12-27T05:56:37.436Z,35.38
2022-12-27T05:59:08.222Z,36.75
2022-12-27T06:01:36.276Z,47.83
2022-12-27T06:04:04.368Z,44.28
2022-12-27T06:06:34.027Z,71.18
2022-12-27T06:09:02.320Z,53.03
2022-12-27T06:11:30.234Z,54.08
2022-12-27T06:13:58.056Z,67.93
2022-12-27T06:16:26.130Z,47.72
2022-12-27T06:18:53.987Z,50.67
2022-12-27T06:21:22.378Z,51.80
2022-12-27T06:23:50.650Z,52.65
2022-12-27T06:26:22.347Z,53.78
2022-12-27T06:28:50.901Z,48.95
2022-12-27T06:31:20.239Z,56.92
2022-12-27T06:36:23.365Z,40.55
2022-12-27T06:38:51.325Z,37.33
2022-12-27T06:41:19.399Z,35.83
2022-12-27T06:43:48.226Z,38.55
2022-12-27T06:46:18.852Z,38.63
2022-12-27T06:48:47.950Z,35.53
2022-12-27T06:51:18.290Z,50.95
2022-12-27T06:53:48.502Z,40.45
2022-12-27T06:58:47.343Z,29.38
2022-12-27T07:01:23.870Z,40.20
2022-12-27T07:03:54.730Z,38.45
2022-12-27T07:06:24.483Z,36.83
2022-12-27T07:08:53.521Z,45.55
2022-12-27T07:11:22.855Z,46.45
2022-12-27T07:13:53.675Z,43.42
2022-12-27T07:16:27.028Z,44.83
2022-12-27T07:18:56.897Z,41.35
2022-12-27T07:21:27.298Z,35.40
2022-12-27T07:23:56.025Z,41.30
2022-12-27T07:26:28.137Z,48.15
2022-12-27T07:28:58.598Z,64.97
2022-12-27T07:31:30.013Z,54.15
2022-12-27T07:34:00.636Z,37.47
2022-12-27T07:36:32.689Z,37.63
2022-12-27T07:39:00.744Z,36.15
2022-12-27T07:41:29.225Z,37.22
2022-12-27T07:43:57.401Z,31.40
2022-12-27T07:46:27.022Z,24.42
2022-12-27T07:48:56.504Z,19.33
2022-12-27T07:51:25.521Z,17.38
2022-12-27T07:53:54.129Z,21.20
2022-12-27T07:56:26.659Z,20.67
2022-12-27T07:58:57.865Z,15.65
2022-12-27T08:01:28.874Z,16.88
2022-12-27T08:03:57.288Z,15.55
2022-12-27T08:06:35.698Z,14.15
2022-12-27T08:09:07.040Z,11.25
2022-12-27T08:11:34.983Z,11.98
2022-12-27T08:14:03.188Z,14.73
2022-12-27T08:16:31.295Z,13.68
2022-12-27T08:19:04.799Z,13.27
2022-12-27T08:21:36.969Z,11.45
2022-12-27T08:24:05.468Z,10.95
2022-12-27T08:26:33.395Z,12.57
2022-12-27T08:29:01.572Z,10.93
2022-12-27T08:31:30.092Z,10.23
2022-12-27T08:33:58.960Z,17.60
2022-12-27T08:39:15.421Z,15.57
2022-12-27T08:41:43.834Z,15.05
2022-12-27T08:44:12.865Z,14.85
2022-12-27T08:46:41.301Z,13.55
2022-12-27T08:49:09.599Z,19.48
2022-12-27T08:51:41.046Z,18.33
2022-12-27T08:54:10.212Z,16.50
2022-12-27T08:56:38.169Z,17.05
2022-12-27T08:59:06.658Z,14.68
2022-12-27T09:01:35.127Z,12.82
2022-12-27T09:04:03.500Z,14.93
2022-12-27T09:06:31.735Z,14.32
2022-12-27T09:09:01.618Z,23.33
2022-12-27T09:11:33.440Z,24.15
2022-12-27T09:14:04.212Z,32.15
2022-12-27T09:16:36.635Z,34.55
2022-12-27T09:19:05.390Z,30.73
2022-12-27T09:21:34.602Z,34.35
2022-12-27T09:24:03.403Z,29.40
2022-12-27T09:26:31.489Z,38.50
2022-12-27T09:29:00.128Z,38.63
2022-12-27T09:31:28.859Z,56.10
2022-12-27T09:33:57.962Z,48.83
2022-12-27T09:36:30.157Z,78.28
2022-12-27T09:38:59.199Z,43.38
2022-12-27T09:42:45.888Z,37.97
2022-12-27T09:45:06.804Z,43.25
2022-12-27T09:47:49.633Z,45.13
2022-12-27T09:50:33.811Z,44.53
2022-12-27T09:53:14.241Z,45.78
2022-12-27T09:58:38.629Z,32.75
2022-12-27T10:01:32.807Z,29.77
2022-12-27T10:04:02.666Z,27.58
2022-12-27T10:06:34.108Z,39.92
2022-12-27T10:09:24.120Z,25.75
2022-12-27T10:12:04.798Z,26.20
2022-12-27T10:15:04.662Z,44.92
2022-12-27T10:17:52.702Z,10.25
2022-12-27T10:20:48.666Z,13.45
2022-12-27T10:23:23.128Z,14.52
2022-12-27T10:26:02.093Z,10.27
2022-12-27T10:28:58.866Z,11.38
2022-12-27T10:31:27.953Z,16.33
2022-12-27T10:33:58.397Z,13.45
2022-12-27T10:36:29.491Z,13.27
2022-12-27T10:38:57.824Z,13.20
2022-12-27T10:41:52.052Z,11.48
2022-12-27T10:44:20.369Z,10.75
2022-12-27T10:46:56.539Z,9.25
2022-12-27T10:49:30.005Z,7.97
2022-12-27T10:52:08.173Z,9.35
2022-12-27T10:54:49.688Z,6.47
2022-12-27T10:57:30.315Z,9.43
2022-12-27T11:00:19.904Z,20.70
2022-12-27T11:03:01.027Z,13.10
2022-12-27T11:05:31.724Z,10.88
2022-12-27T11:08:01.634Z,10.88
2022-12-27T11:10:34.258Z,13.38
2022-12-27T11:13:05.518Z,27.02
2022-12-27T11:15:43.346Z,38.13
2022-12-27T11:18:18.105Z,7.53
2022-12-27T11:21:04.692Z,3.92
2022-12-27T11:23:44.785Z,6.38
2022-12-27T11:26:26.018Z,3.83
2022-12-27T11:28:58.820Z,6.13
2022-12-27T11:31:31.257Z,6.00
2022-12-27T11:34:08.170Z,4.25
2022-12-27T11:36:42.464Z,9.40
2022-12-27T11:39:37.981Z,5.57
2022-12-27T11:42:18.669Z,7.25
2022-12-27T11:45:13.353Z,6.78
2022-12-27T11:47:50.356Z,4.30
2022-12-27T11:50:27.767Z,5.05
2022-12-27T11:53:23.446Z,4.32
2022-12-27T11:56:00.087Z,4.50
2022-12-27T11:59:00.297Z,13.90
2022-12-27T12:02:06.981Z,11.88
2022-12-27T12:04:35.225Z,8.82
2022-12-27T12:07:39.747Z,5.70
2022-12-27T12:10:29.455Z,5.55
2022-12-27T12:13:18.546Z,6.82
2022-12-27T12:16:01.617Z,7.22
2022-12-27T12:18:56.110Z,7.50
2022-12-27T12:21:27.818Z,9.68
2022-12-27T12:24:14.169Z,35.38
2022-12-27T12:26:58.799Z,13.38
2022-12-27T12:29:46.963Z,9.55
2022-12-27T12:32:22.317Z,10.85
2022-12-27T12:35:27.962Z,10.60
2022-12-27T12:38:13.649Z,7.40
2022-12-27T12:40:47.683Z,9.70
2022-12-27T12:43:19.020Z,10.65
2022-12-27T12:46:14.709Z,13.15
2022-12-27T12:48:52.838Z,11.68
2022-12-27T12:51:31.417Z,12.55
2022-12-27T12:54:20.591Z,14.70
2022-12-27T12:57:10.275Z,14.32
2022-12-27T12:59:57.015Z,14.88
2022-12-27T13:02:46.953Z,14.80
2022-12-27T13:05:56.421Z,12.32
2022-12-27T13:08:39.031Z,9.30
2022-12-27T13:11:25.758Z,9.02
2022-12-27T13:14:32.679Z,10.77
2022-12-27T13:17:35.096Z,10.65
2022-12-27T13:20:34.324Z,7.93
2022-12-27T13:23:41.302Z,8.02
2022-12-27T13:26:25.299Z,8.73
2022-12-27T13:29:15.508Z,9.40
2022-12-27T13:32:10.194Z,7.65
2022-12-27T13:35:03.553Z,7.60
2022-12-27T13:40:59.263Z,6.47
2022-12-27T13:44:01.996Z,6.63
2022-12-27T13:46:42.402Z,7.18
2022-12-27T13:49:38.161Z,7.40
2022-12-27T13:52:27.346Z,7.25
2022-12-27T13:55:20.953Z,8.00
2022-12-27T13:58:08.257Z,5.70
2022-12-27T14:00:47.003Z,7.18
2022-12-27T14:03:33.566Z,5.55
2022-12-27T14:06:06.376Z,6.38
2022-12-27T14:09:29.520Z,6.75
2022-12-27T14:12:15.995Z,5.20
2022-12-27T14:14:47.276Z,6.70
2022-12-27T14:17:24.333Z,5.32
2022-12-27T14:19:55.397Z,4.20
2022-12-27T14:22:55.195Z,4.68
2022-12-27T14:25:52.365Z,6.18
2022-12-27T14:29:00.123Z,4.57
2022-12-27T14:32:05.880Z,5.90
2022-12-27T14:34:42.551Z,11.27
2022-12-27T14:37:35.329Z,10.65
2022-12-27T14:40:12.680Z,12.57
2022-12-27T14:43:16.126Z,12.63
2022-12-27T14:46:08.318Z,16.38
2022-12-27T14:48:45.835Z,13.35
2022-12-27T14:55:02.717Z,12.65
2022-12-27T14:57:49.855Z,11.80
2022-12-27T15:02:51.336Z,17.58
2022-12-27T15:05:27.727Z,14.10
2022-12-27T15:08:07.408Z,23.63
2022-12-27T15:10:54.253Z,16.20
2022-12-27T15:13:39.285Z,17.38
2022-12-27T15:16:16.283Z,20.83
2022-12-27T15:19:03.013Z,22.55
2022-12-27T15:21:49.148Z,17.98
2022-12-27T15:24:35.572Z,21.25
2022-12-27T15:27:19.990Z,23.67
2022-12-27T15:30:22.251Z,19.92
2022-12-27T15:33:04.625Z,21.48
2022-12-27T15:36:03.319Z,19.83
2022-12-27T15:38:51.073Z,26.80
2022-12-27T15:41:42.080Z,68.40
2022-12-27T15:44:23.805Z,35.38
2022-12-27T15:47:29.576Z,27.90
2022-12-27T15:50:34.680Z,10.77
2022-12-27T15:53:28.011Z,14.02
2022-12-27T15:55:59.089Z,20.38
2022-12-27T15:58:27.998Z,31.23
2022-12-27T16:01:23.661Z,33.53
2022-12-27T16:03:55.518Z,65.18
2022-12-27T16:06:35.969Z,38.28
2022-12-27T16:09:25.878Z,32.38
2022-12-27T16:12:09.453Z,18.30
2022-12-27T16:14:40.635Z,21.88
2022-12-27T16:17:27.490Z,13.75
2022-12-27T16:20:01.353Z,12.75
2022-12-27T16:22:42.980Z,7.63
2022-12-27T16:25:32.706Z,11.65
2022-12-27T16:28:24.145Z,11.30
2022-12-27T16:30:55.087Z,10.90
2022-12-27T16:33:26.152Z,21.55
2022-12-27T16:36:12.597Z,16.38
2022-12-27T16:38:57.118Z,16.08
2022-12-27T16:41:25.505Z,31.77
2022-12-27T16:44:02.678Z,24.40
2022-12-27T16:46:57.310Z,33.70
2022-12-27T16:49:39.715Z,48.60
2022-12-27T16:52:15.344Z,45.67
2022-12-27T16:54:55.575Z,34.50
2022-12-27T16:57:26.995Z,32.03
2022-12-27T17:00:11.553Z,37.35
2022-12-27T17:02:42.561Z,36.50
2022-12-27T17:05:16.863Z,26.63
2022-12-27T17:07:58.474Z,27.00
2022-12-27T17:10:30.568Z,24.95
2022-12-27T17:13:13.703Z,21.00
2022-12-27T17:16:08.366Z,22.67
2022-12-27T17:18:48.620Z,20.80
2022-12-27T17:21:40.783Z,44.40
2022-12-27T17:24:10.783Z,38.00
2022-12-27T17:27:03.316Z,34.78
2022-12-27T17:29:49.646Z,34.08
2022-12-27T17:32:50.388Z,25.15
2022-12-27T17:35:52.868Z,14.23
2022-12-27T17:38:36.930Z,12.75
2022-12-27T17:41:17.660Z,20.52
2022-12-27T17:44:25.370Z,20.77
2022-12-27T17:47:16.071Z,29.83
2022-12-27T17:49:45.110Z,20.13
2022-12-27T17:52:37.405Z,13.48
2022-12-27T17:55:43.132Z,11.45
2022-12-27T17:58:16.602Z,11.43
2022-12-27T18:00:55.921Z,11.98
2022-12-27T18:03:40.544Z,9.85
2022-12-27T18:06:09.344Z,9.65
2022-12-27T18:08:39.242Z,16.90
2022-12-27T18:11:10.748Z,14.55
2022-12-27T18:13:45.858Z,9.35
2022-12-27T18:16:28.148Z,15.77
2022-12-27T18:19:00.353Z,13.15
2022-12-27T18:21:30.540Z,11.20
2022-12-27T18:23:59.231Z,12.57
2022-12-27T18:27:00.275Z,29.52
2022-12-27T18:29:29.014Z,54.80
2022-12-27T18:32:03.003Z,49.40
2022-12-27T18:34:41.653Z,30.85
2022-12-27T18:37:13.779Z,21.23
2022-12-27T18:39:51.748Z,16.10
2022-12-27T18:42:37.821Z,21.15
2022-12-27T18:45:20.026Z,13.57
2022-12-27T18:47:51.602Z,26.08
2022-12-27T18:50:23.118Z,23.50
2022-12-27T18:53:28.654Z,26.80
2022-12-27T18:56:06.984Z,24.83
2022-12-27T18:58:35.610Z,30.45
2022-12-27T19:01:25.563Z,35.95
2022-12-27T19:04:15.540Z,46.92
2022-12-27T19:07:08.821Z,36.58
2022-12-27T19:09:51.408Z,47.35
2022-12-27T19:12:29.034Z,49.83
2022-12-27T19:14:58.102Z,39.83
2022-12-27T19:20:02.495Z,35.00
2022-12-27T19:22:36.576Z,35.33
2022-12-27T19:25:19.250Z,72.78
2022-12-27T19:28:16.675Z,78.55
2022-12-27T19:30:51.955Z,36.45
2022-12-27T19:33:30.573Z,53.72
2022-12-27T19:36:00.092Z,62.05
2022-12-27T19:38:31.919Z,51.95
2022-12-27T19:41:04.165Z,83.70
2022-12-27T19:43:42.923Z,42.17
2022-12-27T19:46:13.418Z,44.25
2022-12-27T19:48:42.141Z,64.93
2022-12-27T19:51:16.511Z,43.28
2022-12-27T19:53:55.428Z,27.55
2022-12-27T19:56:26.413Z,43.42
2022-12-27T19:58:54.740Z,35.80
2022-12-27T20:01:23.376Z,31.85
2022-12-27T20:03:51.795Z,35.05
2022-12-27T20:06:24.143Z,26.05
2022-12-27T20:08:55.385Z,8.45
2022-12-27T20:11:23.965Z,9.90
2022-12-27T20:13:51.929Z,33.00
2022-12-27T20:16:20.908Z,36.88
2022-12-27T20:18:49.003Z,55.08
2022-12-27T20:21:19.282Z,49.40
2022-12-27T20:23:47.868Z,50.25
2022-12-27T20:26:21.762Z,45.88
2022-12-27T20:28:50.290Z,23.73
2022-12-27T20:31:20.442Z,30.50
2022-12-27T20:33:53.352Z,47.50
2022-12-27T20:36:22.762Z,45.47
2022-12-27T20:43:47.759Z,50.50
2022-12-27T20:46:17.974Z,35.35
2022-12-27T20:48:47.592Z,21.25
2022-12-27T20:51:21.354Z,12.27
2022-12-27T20:53:57.459Z,11.48
2022-12-27T20:56:26.206Z,88.35
2022-12-27T20:58:54.272Z,76.28
2022-12-27T21:01:24.479Z,72.72
2022-12-27T21:03:53.640Z,75.90
2022-12-27T21:06:27.274Z,65.47
2022-12-27T21:08:57.819Z,64.35
2022-12-27T21:11:33.915Z,48.70
2022-12-27T21:14:03.973Z,54.78
2022-12-27T21:16:34.074Z,60.88
2022-12-27T21:19:05.102Z,55.42
2022-12-27T21:21:36.096Z,48.70
2022-12-27T21:24:06.483Z,56.95
2022-12-27T21:26:36.697Z,13.20
2022-12-27T21:29:06.941Z,32.08
2022-12-27T21:31:36.657Z,47.10
2022-12-27T21:34:05.097Z,44.30
2022-12-27T21:36:34.301Z,44.83
2022-12-27T21:39:03.604Z,55.83
2022-12-27T21:44:01.678Z,39.30
2022-12-27T21:46:33.241Z,47.88
2022-12-27T21:49:09.686Z,58.60
2022-12-27T21:51:38.354Z,67.38
2022-12-27T21:54:07.328Z,70.95
2022-12-27T21:56:35.582Z,64.47
2022-12-27T21:59:07.530Z,70.82
2022-12-27T22:01:50.100Z,60.65
2022-12-27T22:04:21.867Z,62.47
2022-12-27T22:06:50.802Z,63.40
2022-12-27T22:09:19.680Z,68.88
2022-12-27T22:11:48.154Z,79.45
2022-12-27T22:14:18.740Z,79.32
2022-12-27T22:16:49.864Z,67.88
2022-12-27T22:19:17.962Z,62.95
2022-12-27T22:21:45.947Z,70.18
2022-12-27T22:24:19.731Z,78.28
2022-12-27T22:26:48.861Z,80.57
2022-12-27T22:29:17.964Z,70.25
2022-12-27T22:31:46.764Z,55.15
2022-12-27T22:34:14.799Z,34.63
2022-12-27T22:36:42.937Z,24.20
2022-12-27T22:39:10.977Z,23.15
2022-12-27T22:41:39.033Z,41.30
2022-12-27T22:44:10.543Z,55.17
2022-12-27T22:47:06.992Z,53.67
2022-12-27T22:49:26.977Z,59.85
2022-12-27T22:51:54.787Z,64.40
2022-12-27T22:55:05.401Z,59.88
2022-12-27T22:57:10.845Z,58.55
2022-12-27T22:59:38.788Z,61.63
2022-12-27T23:02:06.846Z,65.72
2022-12-27T23:04:35.459Z,70.82
2022-12-27T23:07:03.619Z,83.05
2022-12-27T23:09:31.594Z,84.03
2022-12-27T23:11:59.504Z,49.78
2022-12-27T23:14:27.628Z,54.40
2022-12-27T23:16:55.751Z,46.70
2022-12-27T23:19:24.567Z,44.83
2022-12-27T23:21:52.406Z,41.03
2022-12-27T23:24:20.446Z,41.28
2022-12-27T23:26:49.015Z,49.47
2022-12-27T23:29:16.857Z,57.42
2022-12-27T23:31:54.683Z,47.10
2022-12-27T23:34:28.692Z,46.15
2022-12-27T23:37:01.509Z,44.67
2022-12-27T23:39:29.455Z,48.50
2022-12-27T23:41:57.541Z,52.42
2022-12-27T23:44:33.866Z,51.70
2022-12-27T23:47:04.529Z,59.60
2022-12-27T23:49:32.616Z,40.85
2022-12-27T23:52:00.518Z,42.70
2022-12-27T23:54:28.484Z,41.42
2022-12-27T23:56:56.429Z,41.45
2022-12-27T23:59:24.832Z,38.75
